Time;durP1;ratioP1;P1;durP2;ratioP2;P2;SDS_P1;SDS_P2;PMS_P1;PMS_P2;Temp;Humidity;BMP_temperature;BMP_pressure;BME280_temperature;BME280_humidity;BME280_pressure;Samples;Min_cycle;Max_cycle;Signal;HPM_P1;HPM_P2
2022/09/09 00:00:58;;;;;;;3.88;2.85;;;23.60;93.60;;;;;;6130646;28;81330;-68
2022/09/09 00:03:59;;;;;;;5.55;3.35;;;23.60;93.60;;;;;;6141234;28;80503;-59
2022/09/09 00:06:59;;;;;;;5.38;2.85;;;23.60;93.70;;;;;;6137788;28;80576;-59
2022/09/09 00:10:00;;;;;;;4.57;3.22;;;23.60;93.60;;;;;;6153829;28;80642;-59
2022/09/09 00:13:00;;;;;;;3.72;2.47;;;23.60;93.50;;;;;;6153728;28;80169;-60
2022/09/09 00:16:01;;;;;;;4.97;3.42;;;23.60;93.40;;;;;;6147421;28;80553;-60
2022/09/09 00:19:01;;;;;;;19.33;3.63;;;23.60;93.40;;;;;;6144032;28;81809;-60
2022/09/09 00:22:02;;;;;;;5.03;2.75;;;23.60;93.40;;;;;;6128283;28;81416;-59
2022/09/09 00:25:04;;;;;;;3.78;3.05;;;23.60;93.40;;;;;;6144395;28;80556;-57
2022/09/09 00:28:04;;;;;;;5.53;2.78;;;23.60;93.40;;;;;;6107633;28;81162;-56
2022/09/09 00:31:05;;;;;;;8.63;3.17;;;23.60;93.50;;;;;;6116123;28;80365;-57
2022/09/09 00:34:06;;;;;;;3.22;2.60;;;23.60;93.40;;;;;;6113920;28;81653;-56
2022/09/09 00:37:06;;;;;;;3.63;2.78;;;23.60;93.30;;;;;;6107199;28;81354;-56
2022/09/09 00:40:07;;;;;;;3.25;2.75;;;23.60;93.30;;;;;;6111062;28;81416;-70
2022/09/09 00:43:08;;;;;;;4.72;2.83;;;23.60;93.30;;;;;;6140043;28;81112;-70
2022/09/09 00:46:08;;;;;;;4.43;3.03;;;23.60;93.20;;;;;;6105320;28;80374;-70
2022/09/09 00:49:09;;;;;;;3.15;2.65;;;23.60;93.20;;;;;;6108697;28;80584;-71
2022/09/09 00:52:09;;;;;;;4.55;2.72;;;23.60;93.20;;;;;;6111744;28;80612;-70
2022/09/09 00:55:11;;;;;;;3.90;3.20;;;23.60;93.10;;;;;;6123563;28;81044;-71
2022/09/09 00:58:12;;;;;;;5.03;2.72;;;23.60;93.10;;;;;;6131199;28;84168;-68
2022/09/09 01:01:12;;;;;;;3.92;2.83;;;23.60;93.10;;;;;;6116505;28;80497;-58
2022/09/09 01:04:16;;;;;;;4.47;3.03;;;23.60;93.10;;;;;;6146253;28;82516;-58
2022/09/09 01:07:17;;;;;;;5.05;3.20;;;23.60;93.40;;;;;;6110626;28;80308;-57
2022/09/09 01:10:18;;;;;;;4.45;3.20;;;23.60;93.30;;;;;;6145224;28;83552;-57
2022/09/09 01:13:18;;;;;;;3.75;2.92;;;23.60;93.20;;;;;;6122182;28;81555;-56
2022/09/09 01:16:19;;;;;;;4.47;2.67;;;23.60;93.20;;;;;;6105602;28;85989;-60
2022/09/09 01:19:20;;;;;;;4.88;2.75;;;23.60;93.30;;;;;;6134121;28;83037;-57
2022/09/09 01:22:21;;;;;;;4.82;3.22;;;23.60;93.10;;;;;;6127557;28;83272;-57
2022/09/09 01:25:22;;;;;;;3.75;2.63;;;23.60;93.00;;;;;;6157852;28;81351;-58
2022/09/09 01:28:43;;;;;;;5.70;3.10;;;23.60;93.00;;;;;;6112929;28;81394;-58
2022/09/09 01:31:47;;;;;;;5.70;2.90;;;23.60;93.00;;;;;;6125113;28;82590;-59
2022/09/09 01:34:47;;;;;;;5.68;2.97;;;23.60;93.00;;;;;;6127448;28;84051;-58
2022/09/09 01:37:48;;;;;;;4.80;2.75;;;23.50;92.90;;;;;;6120828;28;83539;-60
2022/09/09 01:40:49;;;;;;;5.68;2.78;;;23.50;93.00;;;;;;6139428;28;83811;-60
2022/09/09 01:43:51;;;;;;;4.45;2.47;;;23.60;92.80;;;;;;6127291;28;81740;-59
2022/09/09 01:46:52;;;;;;;3.70;2.70;;;23.50;92.90;;;;;;6127947;28;82282;-59
2022/09/09 01:49:54;;;;;;;2.58;2.38;;;23.50;92.80;;;;;;6139918;28;83063;-59
2022/09/09 01:52:59;;;;;;;5.25;2.80;;;23.50;92.80;;;;;;6123406;28;82916;-60
2022/09/09 01:56:03;;;;;;;2.63;2.35;;;23.60;92.90;;;;;;6140858;28;82330;-59
2022/09/09 01:59:05;;;;;;;7.30;3.13;;;23.50;92.70;;;;;;6126781;28;86934;-60
2022/09/09 02:02:05;;;;;;;3.65;2.60;;;23.50;92.80;;;;;;6125991;28;82804;-59
2022/09/09 02:05:06;;;;;;;5.05;2.83;;;23.50;92.60;;;;;;6122676;28;81947;-59
2022/09/09 02:08:07;;;;;;;4.82;2.50;;;23.50;92.60;;;;;;6102215;28;81421;-60
2022/09/09 02:11:16;;;;;;;3.28;2.40;;;23.50;92.50;;;;;;6120295;28;80097;-59
2022/09/09 02:14:23;;;;;;;4.70;2.35;;;23.50;92.40;;;;;;6128690;28;82626;-67
2022/09/09 02:17:24;;;;;;;2.90;2.38;;;23.50;92.40;;;;;;6126899;28;87630;-68
2022/09/09 02:20:33;;;;;;;3.85;2.65;;;23.50;92.40;;;;;;6126290;28;82959;-68
2022/09/09 02:23:33;;;;;;;3.65;2.83;;;23.50;92.30;;;;;;6127586;28;82306;-68
2022/09/09 02:26:36;;;;;;;4.10;2.45;;;23.50;92.30;;;;;;6126015;28;80548;-68
2022/09/09 02:29:41;;;;;;;3.58;2.47;;;23.50;92.30;;;;;;6143056;28;81640;-67
2022/09/09 02:32:42;;;;;;;2.78;2.25;;;23.50;92.20;;;;;;6129356;28;82015;-58
2022/09/09 02:35:45;;;;;;;8.55;2.80;;;23.40;92.20;;;;;;6132015;28;87727;-58
2022/09/09 02:38:52;;;;;;;5.05;2.15;;;23.50;92.30;;;;;;6130126;28;81577;-58
2022/09/09 02:41:56;;;;;;;2.38;2.10;;;23.50;92.20;;;;;;6139323;28;83082;-58
2022/09/09 02:45:03;;;;;;;3.05;2.53;;;23.50;92.10;;;;;;6138873;28;81075;-59
2022/09/09 02:48:04;;;;;;;5.82;2.60;;;23.50;92.20;;;;;;6132118;28;80078;-56
2022/09/09 02:51:04;;;;;;;15.55;2.67;;;23.50;92.20;;;;;;6123538;28;80140;-57
2022/09/09 02:54:06;;;;;;;4.25;2.88;;;23.50;92.20;;;;;;6137859;28;83326;-56
2022/09/09 02:57:07;;;;;;;3.20;2.58;;;23.50;92.10;;;;;;6123569;28;83333;-53
2022/09/09 03:00:11;;;;;;;5.95;2.20;;;23.50;92.20;;;;;;6127583;28;82011;-54
2022/09/09 03:03:12;;;;;;;4.65;2.63;;;23.50;92.10;;;;;;6124832;28;82940;-56
2022/09/09 03:06:14;;;;;;;3.22;2.50;;;23.50;92.10;;;;;;6133052;28;82872;-57
2022/09/09 03:09:14;;;;;;;3.42;2.42;;;23.50;92.10;;;;;;6143304;28;86060;-53
2022/09/09 03:12:16;;;;;;;3.08;2.42;;;23.40;92.00;;;;;;6125853;28;81449;-55
2022/09/09 03:15:17;;;;;;;2.63;2.15;;;23.50;92.00;;;;;;6125825;28;83409;-52
2022/09/09 03:18:18;;;;;;;2.80;2.50;;;23.40;92.00;;;;;;6121660;28;82928;-54
2022/09/09 03:21:21;;;;;;;4.15;2.55;;;23.40;91.80;;;;;;6125366;28;82994;-57
2022/09/09 03:24:22;;;;;;;4.55;2.63;;;23.40;91.80;;;;;;6144426;28;80432;-57
2022/09/09 03:27:23;;;;;;;4.35;2.60;;;23.40;91.80;;;;;;6124154;28;83641;-57
2022/09/09 03:30:24;;;;;;;2.22;2.03;;;23.40;91.70;;;;;;6138578;28;83046;-56
2022/09/09 03:33:25;;;;;;;3.00;2.28;;;23.40;91.60;;;;;;6114586;28;80679;-57
2022/09/09 03:36:26;;;;;;;5.25;2.28;;;23.40;91.50;;;;;;6120762;28;83644;-57
2022/09/09 03:39:27;;;;;;;2.78;2.40;;;23.40;91.60;;;;;;6131712;28;80560;-56
2022/09/09 03:42:27;;;;;;;4.40;2.58;;;23.30;91.50;;;;;;6113719;28;80604;-57
2022/09/09 03:45:29;;;;;;;5.95;2.75;;;23.40;91.50;;;;;;6138409;28;83321;-57
2022/09/09 03:48:31;;;;;;;3.10;2.25;;;23.40;91.60;;;;;;6123935;28;80557;-58
2022/09/09 03:51:36;;;;;;;5.43;2.58;;;23.40;91.50;;;;;;6128092;28;82860;-58
2022/09/09 03:54:37;;;;;;;3.03;2.13;;;23.40;91.40;;;;;;6123983;28;83473;-58
2022/09/09 03:57:39;;;;;;;3.38;2.35;;;23.40;91.50;;;;;;6124312;28;82908;-59
2022/09/09 04:00:44;;;;;;;3.05;2.22;;;23.40;91.40;;;;;;6151024;28;83063;-58
2022/09/09 04:03:45;;;;;;;3.50;2.42;;;23.40;91.40;;;;;;6133299;28;83500;-70
2022/09/09 04:06:48;;;;;;;3.38;2.45;;;23.40;91.20;;;;;;6119392;28;84019;-69
2022/09/09 04:09:48;;;;;;;2.72;2.08;;;23.40;91.30;;;;;;6146228;28;82448;-68
2022/09/09 04:12:49;;;;;;;2.20;2.00;;;23.40;91.30;;;;;;6141855;28;83167;-68
2022/09/09 04:15:49;;;;;;;6.45;2.65;;;23.50;91.40;;;;;;6128569;28;80559;-68
2022/09/09 04:18:50;;;;;;;3.83;1.80;;;23.50;91.30;;;;;;6124712;28;84039;-69
2022/09/09 04:21:52;;;;;;;4.30;2.28;;;23.50;91.20;;;;;;6143561;28;83043;-63
2022/09/09 04:24:55;;;;;;;5.93;2.92;;;23.40;91.10;;;;;;6133010;28;83132;-65
2022/09/09 04:27:56;;;;;;;7.40;3.03;;;23.40;91.20;;;;;;6128828;28;83435;-62
2022/09/09 04:30:56;;;;;;;3.55;2.35;;;23.40;91.10;;;;;;6137887;28;80215;-63
2022/09/09 04:33:58;;;;;;;7.88;2.85;;;23.50;91.00;;;;;;6155031;28;82773;-63
2022/09/09 04:37:01;;;;;;;13.10;2.72;;;23.50;91.00;;;;;;6144939;28;82745;-66
2022/09/09 04:40:01;;;;;;;8.23;3.13;;;23.50;91.20;;;;;;6153811;28;83170;-61
2022/09/09 04:43:04;;;;;;;8.65;2.80;;;23.60;91.10;;;;;;6148639;28;83510;-61
2022/09/09 04:46:05;;;;;;;11.27;3.67;;;23.50;91.10;;;;;;6152790;28;81867;-61
2022/09/09 04:49:06;;;;;;;5.22;3.17;;;23.50;91.30;;;;;;6168266;28;83511;-62
2022/09/09 04:52:07;;;;;;;12.25;2.83;;;23.60;91.50;;;;;;6170841;28;83348;-61
2022/09/09 04:55:10;;;;;;;4.78;2.78;;;23.60;91.30;;;;;;6168499;28;83130;-63
2022/09/09 04:58:10;;;;;;;5.18;2.53;;;23.60;91.10;;;;;;6150903;28;82976;-66
2022/09/09 05:01:11;;;;;;;3.33;2.08;;;23.60;91.20;;;;;;6148364;28;80330;-67
2022/09/09 05:04:15;;;;;;;7.20;2.72;;;23.70;91.20;;;;;;6159243;28;83168;-70
2022/09/09 05:07:15;;;;;;;3.95;2.40;;;23.60;91.40;;;;;;6131607;28;80803;-62
2022/09/09 05:10:17;;;;;;;4.53;2.33;;;23.60;91.40;;;;;;6155621;28;83222;-66
2022/09/09 05:13:20;;;;;;;2.80;2.22;;;23.60;91.20;;;;;;6139936;28;83450;-67
2022/09/09 05:16:20;;;;;;;4.75;2.38;;;23.60;91.20;;;;;;6130255;28;81727;-63
2022/09/09 05:19:21;;;;;;;3.35;2.83;;;23.60;91.20;;;;;;6128158;28;80478;-68
2022/09/09 05:22:23;;;;;;;7.28;2.60;;;23.50;91.00;;;;;;6128227;28;83312;-57
2022/09/09 05:25:26;;;;;;;4.18;3.03;;;23.50;90.90;;;;;;6122508;28;82326;-56
2022/09/09 05:28:29;;;;;;;12.75;4.35;;;23.50;90.80;;;;;;6124510;28;82920;-58
2022/09/09 05:31:30;;;;;;;11.88;3.85;;;23.40;90.70;;;;;;6121397;28;81951;-67
2022/09/09 05:34:30;;;;;;;11.18;4.55;;;23.30;90.90;;;;;;6117880;28;83066;-72
2022/09/09 05:37:31;;;;;;;6.43;3.70;;;23.10;91.10;;;;;;6133112;28;81861;-68
2022/09/09 05:40:33;;;;;;;5.43;3.75;;;23.00;91.40;;;;;;6102596;28;83002;-66
2022/09/09 05:43:35;;;;;;;5.57;3.05;;;22.90;91.50;;;;;;6111216;28;83040;-68
2022/09/09 05:46:36;;;;;;;6.18;3.10;;;22.70;91.90;;;;;;6097029;28;83698;-54
2022/09/09 05:49:37;;;;;;;4.72;2.83;;;22.70;91.90;;;;;;6110244;28;80771;-49
2022/09/09 05:52:37;;;;;;;4.50;3.53;;;22.90;91.80;;;;;;6114154;28;80641;-54
2022/09/09 05:55:40;;;;;;;4.18;3.10;;;22.90;91.70;;;;;;6124962;28;83265;-56
2022/09/09 05:58:43;;;;;;;5.38;3.15;;;22.90;91.70;;;;;;6122292;28;82168;-56
2022/09/09 06:01:45;;;;;;;5.22;2.92;;;23.00;91.60;;;;;;6121394;28;86898;-56
2022/09/09 06:04:53;;;;;;;6.20;3.50;;;23.00;91.50;;;;;;6107445;28;82484;-56
2022/09/09 06:07:54;;;;;;;11.77;3.55;;;22.90;91.80;;;;;;6088780;28;83206;-54
2022/09/09 06:10:55;;;;;;;6.93;3.70;;;22.90;92.00;;;;;;6139777;28;83119;-54
2022/09/09 06:13:55;;;;;;;5.95;3.67;;;22.90;92.00;;;;;;6120065;28;81339;-53
2022/09/09 06:16:56;;;;;;;8.82;3.70;;;22.80;92.20;;;;;;6120377;28;81503;-53
2022/09/09 06:20:00;;;;;;;6.43;3.20;;;22.90;92.20;;;;;;6113043;28;85834;-53
2022/09/09 06:23:01;;;;;;;7.72;3.22;;;22.90;92.00;;;;;;6124789;28;82254;-51
2022/09/09 06:26:01;;;;;;;5.63;3.13;;;23.00;91.80;;;;;;6132356;28;83362;-52
2022/09/09 06:29:03;;;;;;;4.25;2.75;;;23.00;91.90;;;;;;6133336;28;82959;-54
2022/09/09 06:32:04;;;;;;;6.32;3.55;;;23.00;91.60;;;;;;6129249;28;83573;-50
2022/09/09 06:35:05;;;;;;;3.78;2.50;;;23.10;91.30;;;;;;6123585;28;85383;-53
2022/09/09 06:38:06;;;;;;;3.05;2.60;;;23.10;91.30;;;;;;6140834;28;83349;-53
2022/09/09 06:41:07;;;;;;;6.80;3.67;;;23.20;91.10;;;;;;6105587;28;82815;-54
2022/09/09 06:44:11;;;;;;;6.80;3.60;;;23.20;90.90;;;;;;6105835;28;83133;-55
2022/09/09 06:47:16;;;;;;;7.15;2.83;;;23.20;90.90;;;;;;6113627;28;82604;-54
2022/09/09 06:50:17;;;;;;;4.32;2.88;;;23.10;90.90;;;;;;6117705;28;83186;-60
2022/09/09 06:53:19;;;;;;;5.63;2.75;;;23.10;90.90;;;;;;6118433;28;84010;-60
2022/09/09 06:56:21;;;;;;;2.97;2.40;;;23.10;90.90;;;;;;6142782;28;82337;-60
2022/09/09 06:59:23;;;;;;;5.72;2.95;;;23.20;90.80;;;;;;6128289;28;82509;-60
2022/09/09 07:02:25;;;;;;;7.85;2.67;;;23.30;90.60;;;;;;6141282;28;83440;-61
2022/09/09 07:05:27;;;;;;;6.22;3.70;;;23.30;90.20;;;;;;6124478;28;81511;-61
2022/09/09 07:08:28;;;;;;;3.45;2.95;;;23.30;90.10;;;;;;6135327;28;83100;-53
2022/09/09 07:11:28;;;;;;;7.25;2.88;;;23.30;90.00;;;;;;6121046;28;85952;-56
2022/09/09 07:14:30;;;;;;;6.57;3.03;;;23.40;90.00;;;;;;6119082;28;82908;-54
2022/09/09 07:17:37;;;;;;;5.28;3.17;;;23.40;90.10;;;;;;6113165;28;83490;-53
2022/09/09 07:20:38;;;;;;;2.95;2.22;;;23.50;89.80;;;;;;6101698;28;80779;-56
2022/09/09 07:23:39;;;;;;;8.57;3.45;;;23.50;89.40;;;;;;6097949;28;80841;-53
2022/09/09 07:26:39;;;;;;;4.68;3.10;;;23.40;89.60;;;;;;6110974;28;82042;-63
2022/09/09 07:29:40;;;;;;;6.10;3.42;;;23.40;89.30;;;;;;6128656;28;83108;-62
2022/09/09 07:32:42;;;;;;;4.47;2.50;;;23.50;89.30;;;;;;6123757;28;83317;-61
2022/09/09 07:35:43;;;;;;;7.95;4.35;;;23.50;88.30;;;;;;6122323;28;83052;-63
2022/09/09 07:38:45;;;;;;;5.22;2.90;;;23.50;88.50;;;;;;6102911;28;85892;-63
2022/09/09 07:41:45;;;;;;;7.38;3.47;;;23.50;87.90;;;;;;6125060;28;83050;-62
2022/09/09 07:44:47;;;;;;;4.80;2.72;;;23.50;87.70;;;;;;6120081;28;80628;-54
2022/09/09 07:47:50;;;;;;;2.47;2.15;;;23.50;87.20;;;;;;6126372;28;82667;-56
2022/09/09 07:50:51;;;;;;;3.78;2.40;;;23.50;87.60;;;;;;6143756;28;83273;-57
2022/09/09 07:53:52;;;;;;;4.30;2.42;;;23.50;87.60;;;;;;6133118;28;83111;-56
2022/09/09 07:56:52;;;;;;;5.55;2.63;;;23.50;87.40;;;;;;6126463;28;83175;-57
2022/09/09 07:59:56;;;;;;;5.82;2.58;;;23.60;87.30;;;;;;6152009;28;82185;-57
2022/09/09 08:02:57;;;;;;;3.28;2.60;;;23.60;87.20;;;;;;6157376;28;81791;-62
2022/09/09 08:05:58;;;;;;;3.40;1.85;;;23.60;87.80;;;;;;6130971;28;83086;-63
2022/09/09 08:08:58;;;;;;;2.60;1.92;;;23.70;87.70;;;;;;6144508;28;80310;-62
2022/09/09 08:12:01;;;;;;;3.22;2.05;;;23.70;87.40;;;;;;6145606;28;82979;-63
2022/09/09 08:15:02;;;;;;;5.10;2.05;;;23.70;87.00;;;;;;6159402;28;82252;-62
2022/09/09 08:18:06;;;;;;;5.80;2.60;;;23.80;86.80;;;;;;6150181;28;80207;-62
2022/09/09 08:21:08;;;;;;;5.68;2.22;;;23.80;86.60;;;;;;6150058;28;80804;-62
2022/09/09 08:24:10;;;;;;;6.18;2.58;;;23.80;85.40;;;;;;6148894;28;83017;-62
2022/09/09 08:27:12;;;;;;;1.92;1.67;;;23.80;84.30;;;;;;6145308;28;83593;-64
2022/09/09 08:30:13;;;;;;;2.28;1.80;;;23.80;84.00;;;;;;6147653;28;81065;-63
2022/09/09 08:33:15;;;;;;;1.80;1.70;;;23.90;83.90;;;;;;6150927;28;82448;-63
2022/09/09 08:36:15;;;;;;;3.35;2.40;;;23.80;84.50;;;;;;6137619;28;84186;-62
2022/09/09 08:39:16;;;;;;;1.85;1.73;;;23.80;83.60;;;;;;6123194;28;80679;-63
2022/09/09 08:42:18;;;;;;;4.20;2.55;;;23.70;83.40;;;;;;6124918;28;83257;-62
2022/09/09 08:45:19;;;;;;;2.13;1.90;;;23.80;84.20;;;;;;6122991;28;80229;-63
2022/09/09 08:48:20;;;;;;;3.30;2.03;;;23.80;83.30;;;;;;6136944;28;83455;-63
2022/09/09 08:51:22;;;;;;;3.08;2.05;;;23.80;83.70;;;;;;6138678;28;84846;-64
2022/09/09 08:54:23;;;;;;;4.60;2.05;;;23.90;83.60;;;;;;6134959;28;81875;-64
2022/09/09 08:57:26;;;;;;;2.67;2.05;;;23.90;84.00;;;;;;6142685;28;82628;-62
2022/09/09 09:00:27;;;;;;;3.42;1.83;;;23.90;84.10;;;;;;6154047;28;83205;-62
2022/09/09 09:03:27;;;;;;;1.95;1.80;;;24.00;83.40;;;;;;6140399;28;81501;-64
2022/09/09 09:06:28;;;;;;;4.88;2.15;;;24.10;82.80;;;;;;6135991;28;82729;-64
2022/09/09 09:09:30;;;;;;;4.40;2.10;;;24.20;82.30;;;;;;6129763;28;83690;-62
2022/09/09 09:12:31;;;;;;;1.90;1.60;;;24.30;83.00;;;;;;6159443;28;81681;-63
2022/09/09 09:15:31;;;;;;;1.77;1.67;;;24.30;82.90;;;;;;6115157;28;84047;-51
2022/09/09 09:18:33;;;;;;;3.22;1.80;;;24.30;81.10;;;;;;6122513;28;81767;-56
2022/09/09 09:21:34;;;;;;;1.38;1.27;;;24.30;80.50;;;;;;6120698;28;84832;-57
2022/09/09 09:24:35;;;;;;;6.55;1.73;;;24.30;81.10;;;;;;6134227;28;81499;-55
2022/09/09 09:27:36;;;;;;;3.42;1.50;;;24.30;80.80;;;;;;6128451;28;82936;-56
2022/09/09 09:30:41;;;;;;;1.90;1.50;;;24.40;81.30;;;;;;6119941;28;83508;-57
2022/09/09 09:33:46;;;;;;;2.30;1.58;;;24.40;81.50;;;;;;6102811;28;83130;-54
2022/09/09 09:36:47;;;;;;;1.88;1.42;;;24.30;80.70;;;;;;6126435;28;82595;-55
2022/09/09 09:39:49;;;;;;;4.50;1.63;;;24.30;81.20;;;;;;6114374;28;83299;-54
2022/09/09 09:42:51;;;;;;;2.92;1.63;;;24.30;80.00;;;;;;6113993;28;83079;-55
2022/09/09 09:45:52;;;;;;;2.38;1.67;;;24.30;79.40;;;;;;6152604;28;81616;-56
2022/09/09 09:48:53;;;;;;;2.95;1.83;;;24.20;79.10;;;;;;6150820;28;83207;-55
2022/09/09 09:51:53;;;;;;;2.60;1.90;;;24.20;79.20;;;;;;6149254;28;81390;-56
2022/09/09 09:54:54;;;;;;;2.10;1.50;;;24.20;79.00;;;;;;6141436;28;82909;-53
2022/09/09 09:57:55;;;;;;;4.35;1.92;;;24.20;79.10;;;;;;6164630;28;83262;-59
2022/09/09 10:00:57;;;;;;;2.10;1.60;;;24.20;78.90;;;;;;6151274;28;82563;-57
2022/09/09 10:04:01;;;;;;;2.45;1.38;;;24.20;78.30;;;;;;6154695;28;81585;-52
2022/09/09 10:07:02;;;;;;;2.00;1.80;;;24.30;78.10;;;;;;6152126;28;83235;-53
2022/09/09 10:10:02;;;;;;;4.35;1.88;;;24.30;77.70;;;;;;6150460;28;81071;-60
2022/09/09 10:13:03;;;;;;;2.08;1.88;;;24.30;77.00;;;;;;6151287;28;80347;-59
2022/09/09 10:16:03;;;;;;;2.33;1.83;;;24.30;78.70;;;;;;6154221;28;86131;-60
2022/09/09 10:19:04;;;;;;;2.05;1.60;;;24.40;77.90;;;;;;6129565;28;81048;-62
2022/09/09 10:22:06;;;;;;;3.63;2.00;;;24.40;78.20;;;;;;6113368;28;86022;-60
2022/09/09 10:25:07;;;;;;;2.60;2.25;;;24.60;78.60;;;;;;6105892;28;80652;-61
2022/09/09 10:28:08;;;;;;;2.17;1.83;;;24.60;78.20;;;;;;6100219;28;81850;-60
2022/09/09 10:31:08;;;;;;;1.98;1.80;;;24.60;77.40;;;;;;6100425;28;80429;-60
2022/09/09 10:34:09;;;;;;;13.63;2.00;;;24.50;77.20;;;;;;6117215;28;83994;-61
2022/09/09 10:37:09;;;;;;;1.67;1.58;;;24.50;76.80;;;;;;6118625;28;81550;-61
2022/09/09 10:40:10;;;;;;;2.17;1.80;;;24.40;77.00;;;;;;6101896;28;80222;-61
2022/09/09 10:43:10;;;;;;;10.30;1.70;;;24.40;75.80;;;;;;6114973;28;81199;-61
2022/09/09 10:46:11;;;;;;;4.20;1.75;;;24.30;76.20;;;;;;6122663;28;80496;-61
2022/09/09 10:49:12;;;;;;;2.38;1.80;;;24.30;76.10;;;;;;6126476;28;79963;-53
2022/09/09 10:52:13;;;;;;;2.20;1.52;;;24.30;75.90;;;;;;6131410;28;80335;-55
2022/09/09 10:55:13;;;;;;;3.22;1.70;;;24.20;76.00;;;;;;6124931;28;80564;-56
2022/09/09 10:58:14;;;;;;;1.85;1.70;;;24.20;76.20;;;;;;6092451;28;83131;-54
2022/09/09 11:01:15;;;;;;;6.28;2.08;;;24.30;76.70;;;;;;6106791;28;82982;-56
2022/09/09 11:04:16;;;;;;;2.22;1.48;;;24.40;76.70;;;;;;6108894;28;82132;-57
2022/09/09 11:07:16;;;;;;;3.25;1.77;;;24.50;76.30;;;;;;6125528;28;86769;-62
2022/09/09 11:10:17;;;;;;;1.70;1.25;;;24.70;75.20;;;;;;6108552;28;84997;-61
2022/09/09 11:13:17;;;;;;;8.27;1.55;;;24.70;75.10;;;;;;6107476;28;80252;-61
2022/09/09 11:16:18;;;;;;;5.50;1.65;;;24.80;73.40;;;;;;6091841;28;86467;-62
2022/09/09 11:19:18;;;;;;;3.08;1.90;;;24.80;73.00;;;;;;6119832;28;80657;-61
2022/09/09 11:22:19;;;;;;;2.25;1.48;;;24.90;73.10;;;;;;6123403;28;82339;-60
2022/09/09 11:25:19;;;;;;;1.90;1.23;;;24.90;74.10;;;;;;6127795;28;80179;-57
2022/09/09 11:28:22;;;;;;;2.40;1.73;;;24.90;72.10;;;;;;6125585;28;81063;-53
2022/09/09 11:31:22;;;;;;;3.45;1.88;;;24.90;74.40;;;;;;6124348;28;81379;-56
2022/09/09 11:34:23;;;;;;;1.80;1.60;;;24.90;73.30;;;;;;6118868;28;80384;-56
2022/09/09 11:37:23;;;;;;;2.13;1.92;;;25.00;73.50;;;;;;6118053;28;82792;-57
2022/09/09 11:40:25;;;;;;;5.22;1.42;;;25.10;74.40;;;;;;6118035;28;86971;-59
2022/09/09 11:43:25;;;;;;;4.35;1.50;;;25.10;73.90;;;;;;6116429;28;80880;-60
2022/09/09 11:46:26;;;;;;;1.48;1.38;;;25.00;73.60;;;;;;6098531;28;80359;-56
2022/09/09 11:49:27;;;;;;;1.67;1.40;;;25.00;72.30;;;;;;6098661;28;83804;-58
2022/09/09 11:52:28;;;;;;;3.75;1.75;;;25.00;72.50;;;;;;6114782;28;85766;-59
2022/09/09 11:55:30;;;;;;;7.03;2.33;;;25.10;73.30;;;;;;6105422;28;82946;-54
2022/09/09 11:58:32;;;;;;;3.67;2.33;;;25.10;72.70;;;;;;6088894;28;85668;-55
2022/09/09 12:01:32;;;;;;;4.10;2.10;;;25.10;73.50;;;;;;6088388;28;81925;-62
2022/09/09 12:04:33;;;;;;;1.73;1.63;;;25.10;73.60;;;;;;6087732;28;83764;-61
2022/09/09 12:07:33;;;;;;;2.10;1.77;;;25.10;72.00;;;;;;6088755;28;83401;-63
2022/09/09 12:10:35;;;;;;;1.77;1.40;;;25.10;71.40;;;;;;6107546;28;80620;-63
2022/09/09 12:13:36;;;;;;;2.22;1.70;;;25.20;72.00;;;;;;6113103;28;80862;-63
2022/09/09 12:16:38;;;;;;;4.65;1.83;;;25.20;70.10;;;;;;6117559;28;80666;-62
2022/09/09 12:19:38;;;;;;;3.67;1.60;;;25.30;68.50;;;;;;6111146;28;80902;-62
2022/09/09 12:22:39;;;;;;;1.58;1.48;;;25.30;67.80;;;;;;6115445;28;80393;-60
2022/09/09 12:25:39;;;;;;;1.80;1.30;;;25.30;68.70;;;;;;6121427;28;80674;-64
2022/09/09 12:28:40;;;;;;;3.25;1.42;;;25.40;69.80;;;;;;6117537;28;82795;-62
2022/09/09 12:31:41;;;;;;;1.67;1.25;;;25.30;69.90;;;;;;6116911;28;80325;-62
2022/09/09 12:34:41;;;;;;;1.67;1.27;;;25.30;70.00;;;;;;6117828;28;80114;-62
2022/09/09 12:37:42;;;;;;;1.45;1.15;;;25.30;69.30;;;;;;6114534;28;83434;-61
2022/09/09 12:40:43;;;;;;;2.20;1.40;;;25.20;69.60;;;;;;6103574;28;86653;-66
2022/09/09 12:43:44;;;;;;;1.40;1.30;;;25.10;67.70;;;;;;6121452;28;80523;-60
2022/09/09 12:46:44;;;;;;;1.58;1.38;;;25.10;68.60;;;;;;6117494;28;80613;-60
2022/09/09 12:49:45;;;;;;;1.70;1.60;;;25.20;68.00;;;;;;6121013;28;81324;-61
2022/09/09 12:52:46;;;;;;;1.85;1.50;;;25.20;68.70;;;;;;6118431;28;80864;-59
2022/09/09 12:55:47;;;;;;;1.85;1.20;;;25.30;69.50;;;;;;6119351;28;81119;-58
2022/09/09 12:58:47;;;;;;;2.08;1.30;;;25.30;69.50;;;;;;6116816;28;87668;-56
2022/09/09 13:01:48;;;;;;;1.73;1.63;;;25.30;70.10;;;;;;6121914;28;83544;-53
2022/09/09 13:04:50;;;;;;;2.38;1.55;;;25.30;69.00;;;;;;6114536;28;80948;-57
2022/09/09 13:07:50;;;;;;;1.98;1.73;;;25.30;69.40;;;;;;6118481;28;81226;-57
2022/09/09 13:10:54;;;;;;;3.08;1.70;;;25.30;69.90;;;;;;6123026;28;80675;-58
2022/09/09 13:13:55;;;;;;;2.47;1.75;;;25.30;70.80;;;;;;6121931;28;80678;-62
2022/09/09 13:16:56;;;;;;;2.03;1.60;;;25.20;70.60;;;;;;6121177;28;84746;-58
2022/09/09 13:19:56;;;;;;;2.78;2.08;;;25.20;70.70;;;;;;6120051;28;81382;-62
2022/09/09 13:22:57;;;;;;;3.40;1.92;;;25.20;70.20;;;;;;6126997;28;80449;-62
2022/09/09 13:25:58;;;;;;;4.75;2.08;;;25.20;71.00;;;;;;6117966;28;80489;-64
2022/09/09 13:28:58;;;;;;;5.63;2.00;;;25.20;71.20;;;;;;6127630;28;80996;-62
2022/09/09 13:31:59;;;;;;;5.22;1.98;;;25.20;71.70;;;;;;6128885;28;82663;-60
2022/09/09 13:34:59;;;;;;;2.33;2.00;;;25.30;71.80;;;;;;6128204;28;80742;-64
2022/09/09 13:38:00;;;;;;;3.17;1.83;;;25.30;72.00;;;;;;6101437;28;83369;-64
2022/09/09 13:41:04;;;;;;;1.80;1.70;;;25.30;71.60;;;;;;6137937;28;82603;-64
2022/09/09 13:44:06;;;;;;;3.85;2.00;;;25.40;71.30;;;;;;6125308;28;86146;-62
2022/09/09 13:47:06;;;;;;;4.03;2.78;;;25.30;71.90;;;;;;6131214;28;80682;-65
2022/09/09 13:50:07;;;;;;;4.57;2.90;;;25.30;72.30;;;;;;6123715;28;82225;-70
2022/09/09 13:53:08;;;;;;;7.63;3.30;;;25.30;72.00;;;;;;6127364;28;80783;-70
2022/09/09 13:56:08;;;;;;;6.07;3.80;;;25.40;70.70;;;;;;6119782;28;80185;-68
2022/09/09 13:59:09;;;;;;;4.68;2.55;;;25.40;70.50;;;;;;6121893;28;86341;-66
2022/09/09 14:02:09;;;;;;;5.35;2.13;;;25.40;69.10;;;;;;6129271;28;84614;-71
2022/09/09 14:05:11;;;;;;;2.30;1.85;;;25.50;68.80;;;;;;6128936;28;80689;-66
2022/09/09 14:08:13;;;;;;;4.43;1.85;;;25.50;68.60;;;;;;6120090;28;80630;-66
2022/09/09 14:11:13;;;;;;;2.85;1.80;;;25.50;68.40;;;;;;6113599;28;80669;-62
2022/09/09 14:14:14;;;;;;;5.72;2.35;;;25.50;68.60;;;;;;6129652;28;80261;-65
2022/09/09 14:17:15;;;;;;;2.42;2.22;;;25.50;68.70;;;;;;6104834;28;80321;-65
2022/09/09 14:20:17;;;;;;;4.97;2.88;;;25.50;69.40;;;;;;6113534;28;82302;-70
2022/09/09 14:23:18;;;;;;;5.63;3.15;;;25.50;69.40;;;;;;6129524;28;83743;-66
2022/09/09 14:26:20;;;;;;;5.07;2.80;;;25.60;69.80;;;;;;6116408;28;84748;-64
2022/09/09 14:29:21;;;;;;;3.50;2.72;;;25.60;69.80;;;;;;6104086;28;81257;-65
2022/09/09 14:32:21;;;;;;;4.30;2.03;;;25.60;69.80;;;;;;6102480;28;86501;-65
2022/09/09 14:35:22;;;;;;;2.50;1.90;;;25.60;69.40;;;;;;6112583;28;80656;-72
2022/09/09 14:38:22;;;;;;;3.97;2.35;;;25.60;69.00;;;;;;6103074;28;80664;-68
2022/09/09 14:41:23;;;;;;;2.65;2.15;;;25.60;68.60;;;;;;6103031;28;80433;-67
2022/09/09 14:44:23;;;;;;;1.88;1.58;;;25.60;67.80;;;;;;6103505;28;81729;-64
2022/09/09 14:47:24;;;;;;;3.05;1.70;;;25.60;65.90;;;;;;6092508;28;80655;-63
2022/09/09 14:50:24;;;;;;;2.10;1.73;;;25.60;67.10;;;;;;6099344;28;83789;-62
2022/09/09 14:53:25;;;;;;;2.10;1.48;;;25.70;67.30;;;;;;6109823;28;83548;-63
2022/09/09 14:56:26;;;;;;;1.55;1.42;;;25.60;67.70;;;;;;6116469;28;80843;-66
2022/09/09 14:59:26;;;;;;;4.13;1.40;;;25.60;67.60;;;;;;6106445;28;86299;-62
2022/09/09 15:02:27;;;;;;;3.53;1.40;;;25.60;67.80;;;;;;6099541;28;81772;-64
2022/09/09 15:05:27;;;;;;;1.58;1.48;;;25.50;68.30;;;;;;6123206;28;80315;-66
2022/09/09 15:08:28;;;;;;;1.58;1.23;;;25.60;66.60;;;;;;6107085;28;84010;-64
2022/09/09 15:11:30;;;;;;;4.28;1.30;;;25.50;66.90;;;;;;6090726;28;80832;-65
2022/09/09 15:14:30;;;;;;;5.63;1.83;;;25.50;67.60;;;;;;6099427;28;80489;-66
2022/09/09 15:17:31;;;;;;;2.45;1.40;;;25.50;67.70;;;;;;6114898;28;80967;-64
2022/09/09 15:20:31;;;;;;;5.68;1.40;;;25.50;67.60;;;;;;6119893;28;80852;-63
2022/09/09 15:23:32;;;;;;;2.97;1.33;;;25.50;68.20;;;;;;6124124;28;80490;-57
2022/09/09 15:26:32;;;;;;;5.20;1.80;;;25.50;68.70;;;;;;6121069;28;80145;-58
2022/09/09 15:29:33;;;;;;;4.00;1.80;;;25.50;68.70;;;;;;6116817;28;84391;-52
2022/09/09 15:32:34;;;;;;;4.63;2.15;;;25.40;68.70;;;;;;6106647;28;86171;-59
2022/09/09 15:35:35;;;;;;;11.35;2.17;;;25.40;69.50;;;;;;6113871;28;81173;-55
2022/09/09 15:38:35;;;;;;;5.43;1.92;;;25.40;69.90;;;;;;6109555;28;82734;-59
2022/09/09 15:41:36;;;;;;;2.03;1.83;;;25.40;70.30;;;;;;6115711;28;80411;-63